createdAt,value
2022-11-18T00:01:03.280Z,1004.04
2022-11-18T00:02:07.484Z,1004.04
2022-11-18T00:03:11.677Z,1004.05
2022-11-18T00:04:15.777Z,1004.05
2022-11-18T00:05:20.020Z,1004.04
2022-11-18T00:06:24.124Z,1004.04
2022-11-18T00:07:28.344Z,1004.03
2022-11-18T00:08:32.444Z,1004.05
2022-11-18T00:09:36.609Z,1004.08
2022-11-18T00:10:40.669Z,1004.08
2022-11-18T00:11:44.985Z,1004.09
2022-11-18T00:12:49.057Z,1004.11
2022-11-18T00:13:53.165Z,1004.09
2022-11-18T00:14:57.451Z,1004.11
2022-11-18T00:16:01.589Z,1004.17
2022-11-18T00:17:05.772Z,1004.16
2022-11-18T00:18:09.870Z,1004.13
2022-11-18T00:19:14.060Z,1004.15
2022-11-18T00:20:18.143Z,1004.13
2022-11-18T00:21:22.289Z,1004.15
2022-11-18T00:22:29.930Z,1004.11
2022-11-18T00:23:30.693Z,1004.10
2022-11-18T00:24:34.908Z,1004.09
2022-11-18T00:25:39.081Z,1004.11
2022-11-18T00:26:43.201Z,1004.07
2022-11-18T00:27:47.406Z,1004.09
2022-11-18T00:28:51.584Z,1004.04
2022-11-18T00:29:55.812Z,1004.00
2022-11-18T00:30:59.920Z,1004.00
2022-11-18T00:32:03.995Z,1003.99
2022-11-18T00:33:08.152Z,1004.01
2022-11-18T00:34:12.363Z,1004.01
2022-11-18T00:35:16.445Z,1004.10
2022-11-18T00:36:20.569Z,1004.09
2022-11-18T00:37:24.829Z,1004.04
2022-11-18T00:38:28.815Z,1004.04
2022-11-18T00:39:33.038Z,1004.04
2022-11-18T00:40:37.210Z,1004.07
2022-11-18T00:41:41.460Z,1004.02
2022-11-18T00:42:45.687Z,1004.03
2022-11-18T00:43:49.762Z,1004.05
2022-11-18T00:44:54.069Z,1004.04
2022-11-18T00:45:58.239Z,1004.08
2022-11-18T00:47:02.433Z,1004.12
2022-11-18T00:48:06.484Z,1004.11
2022-11-18T00:49:10.657Z,1004.15
2022-11-18T00:50:14.791Z,1004.15
2022-11-18T00:51:19.058Z,1004.16
2022-11-18T00:52:23.216Z,1004.14
2022-11-18T00:53:27.298Z,1004.15
2022-11-18T00:54:31.555Z,1004.19
2022-11-18T00:55:35.737Z,1004.20
2022-11-18T00:56:39.814Z,1004.25
2022-11-18T00:57:43.941Z,1004.26
2022-11-18T00:58:48.139Z,1004.25
2022-11-18T00:59:52.319Z,1004.27
2022-11-18T01:00:56.635Z,1004.22
2022-11-18T01:02:00.602Z,1004.25
2022-11-18T01:03:04.750Z,1004.28
2022-11-18T01:04:08.795Z,1004.28
2022-11-18T01:05:12.993Z,1004.29
2022-11-18T01:06:17.152Z,1004.26
2022-11-18T01:07:21.352Z,1004.31
2022-11-18T01:08:25.484Z,1004.34
2022-11-18T01:09:29.684Z,1004.37
2022-11-18T01:10:33.779Z,1004.36
2022-11-18T01:11:38.026Z,1004.38
2022-11-18T01:12:42.098Z,1004.38
2022-11-18T01:13:46.263Z,1004.35
2022-11-18T01:14:50.479Z,1004.32
2022-11-18T01:15:54.614Z,1004.31
2022-11-18T01:16:58.698Z,1004.34
2022-11-18T01:18:02.834Z,1004.35
2022-11-18T01:19:07.034Z,1004.31
2022-11-18T01:20:11.147Z,1004.34
2022-11-18T01:21:15.279Z,1004.40
2022-11-18T01:22:19.452Z,1004.33
2022-11-18T01:23:23.469Z,1004.35
2022-11-18T01:24:27.692Z,1004.33
2022-11-18T01:25:31.872Z,1004.30
2022-11-18T01:26:35.999Z,1004.28
2022-11-18T01:27:40.150Z,1004.33
2022-11-18T01:28:44.314Z,1004.30
2022-11-18T01:29:48.445Z,1004.34
2022-11-18T01:30:52.727Z,1004.33
2022-11-18T01:32:22.699Z,1004.32
2022-11-18T01:33:00.997Z,1004.33
2022-11-18T01:34:05.126Z,1004.33
2022-11-18T01:35:12.287Z,1004.36
2022-11-18T01:36:15.396Z,1004.34
2022-11-18T01:37:19.522Z,1004.36
2022-11-18T01:38:23.676Z,1004.38
2022-11-18T01:39:30.842Z,1004.37
2022-11-18T01:40:34.033Z,1004.36
2022-11-18T01:41:38.112Z,1004.41
2022-11-18T01:42:42.347Z,1004.41
2022-11-18T01:43:46.449Z,1004.39
2022-11-18T01:44:50.574Z,1004.46
2022-11-18T01:45:54.843Z,1004.50
2022-11-18T01:46:58.949Z,1004.46
2022-11-18T01:48:03.102Z,1004.47
2022-11-18T01:49:07.195Z,1004.50
2022-11-18T01:50:11.351Z,1004.46
2022-11-18T01:51:15.626Z,1004.52
2022-11-18T01:52:19.698Z,1004.52
2022-11-18T01:53:23.927Z,1004.50
2022-11-18T01:54:28.111Z,1004.52
2022-11-18T01:55:32.347Z,1004.51
2022-11-18T01:56:36.404Z,1004.56
2022-11-18T01:57:40.568Z,1004.58
2022-11-18T01:58:44.742Z,1004.58
2022-11-18T01:59:48.773Z,1004.57
2022-11-18T02:00:53.024Z,1004.59
2022-11-18T02:01:59.780Z,1004.63
2022-11-18T02:03:01.336Z,1004.62
2022-11-18T02:04:05.424Z,1004.59
2022-11-18T02:05:09.602Z,1004.57
2022-11-18T02:06:13.732Z,1004.57
2022-11-18T02:07:17.909Z,1004.62
2022-11-18T02:08:22.069Z,1004.57
2022-11-18T02:09:26.274Z,1004.59
2022-11-18T02:10:30.395Z,1004.58
2022-11-18T02:11:34.796Z,1004.59
2022-11-18T02:12:38.723Z,1004.55
2022-11-18T02:13:42.861Z,1004.58
2022-11-18T02:14:46.985Z,1004.57
2022-11-18T02:15:51.137Z,1004.54
2022-11-18T02:16:55.399Z,1004.51
2022-11-18T02:17:59.512Z,1004.54
2022-11-18T02:19:03.646Z,1004.55
2022-11-18T02:20:07.836Z,1004.54
2022-11-18T02:21:12.042Z,1004.65
2022-11-18T02:22:16.114Z,1004.57
2022-11-18T02:23:20.364Z,1004.52
2022-11-18T02:24:24.463Z,1004.50
2022-11-18T02:25:28.725Z,1004.51
2022-11-18T02:26:32.873Z,1004.54
2022-11-18T02:27:36.950Z,1004.52
2022-11-18T02:28:41.106Z,1004.51
2022-11-18T02:29:45.209Z,1004.57
2022-11-18T02:30:49.306Z,1004.55
2022-11-18T02:31:53.428Z,1004.59
2022-11-18T02:32:57.677Z,1004.54
2022-11-18T02:34:01.823Z,1004.52
2022-11-18T02:35:05.901Z,1004.50
2022-11-18T02:36:10.027Z,1004.48
2022-11-18T02:37:14.172Z,1004.52
2022-11-18T02:38:18.301Z,1004.53
2022-11-18T02:39:22.593Z,1004.54
2022-11-18T02:40:26.689Z,1004.55
2022-11-18T02:41:30.811Z,1004.60
2022-11-18T02:42:34.943Z,1004.63
2022-11-18T02:43:39.179Z,1004.67
2022-11-18T02:44:43.351Z,1004.66
2022-11-18T02:45:47.419Z,1004.70
2022-11-18T02:46:51.610Z,1004.69
2022-11-18T02:47:55.700Z,1004.73
2022-11-18T02:48:59.963Z,1004.74
2022-11-18T02:50:03.946Z,1004.74
2022-11-18T02:51:08.175Z,1004.72
2022-11-18T02:52:12.357Z,1004.74
2022-11-18T02:53:16.525Z,1004.70
2022-11-18T02:54:20.721Z,1004.69
2022-11-18T02:55:24.829Z,1004.69
2022-11-18T02:56:28.973Z,1004.68
2022-11-18T02:57:33.195Z,1004.67
2022-11-18T02:58:37.283Z,1004.70
2022-11-18T02:59:41.432Z,1004.70
2022-11-18T03:00:45.556Z,1004.65
2022-11-18T03:01:49.733Z,1004.62
2022-11-18T03:02:53.778Z,1004.62
2022-11-18T03:03:57.933Z,1004.69
2022-11-18T03:05:02.065Z,1004.70
2022-11-18T03:06:06.290Z,1004.69
2022-11-18T03:07:10.411Z,1004.72
2022-11-18T03:08:14.463Z,1004.71
2022-11-18T03:09:18.999Z,1004.73
2022-11-18T03:10:22.807Z,1004.68
2022-11-18T03:11:27.067Z,1004.68
2022-11-18T03:12:31.127Z,1004.67
2022-11-18T03:13:35.376Z,1004.68
2022-11-18T03:14:39.562Z,1004.67
2022-11-18T03:15:43.641Z,1004.64
2022-11-18T03:16:47.816Z,1004.66
2022-11-18T03:17:52.016Z,1004.67
2022-11-18T03:18:59.166Z,1004.67
2022-11-18T03:20:02.418Z,1004.66
2022-11-18T03:21:06.452Z,1004.70
2022-11-18T03:22:10.577Z,1004.73
2022-11-18T03:23:14.703Z,1004.73
2022-11-18T03:24:18.964Z,1004.72
2022-11-18T03:25:23.049Z,1004.77
2022-11-18T03:26:27.160Z,1004.79
2022-11-18T03:27:31.332Z,1004.79
2022-11-18T03:28:35.420Z,1004.79
2022-11-18T03:29:39.520Z,1004.76
2022-11-18T03:30:43.653Z,1004.75
2022-11-18T03:31:47.902Z,1004.76
2022-11-18T03:32:51.961Z,1004.78
2022-11-18T03:33:56.130Z,1004.73
2022-11-18T03:35:00.275Z,1004.82
2022-11-18T03:36:04.486Z,1004.78
2022-11-18T03:37:10.657Z,1004.83
2022-11-18T03:38:12.765Z,1004.81
2022-11-18T03:39:17.276Z,1004.85
2022-11-18T03:40:21.090Z,1004.83
2022-11-18T03:41:25.239Z,1004.88
2022-11-18T03:42:29.407Z,1004.89
2022-11-18T03:43:33.504Z,1004.89
2022-11-18T03:44:37.642Z,1004.87
2022-11-18T03:45:41.793Z,1004.89
2022-11-18T03:46:46.021Z,1004.90
2022-11-18T03:47:50.148Z,1004.90
2022-11-18T03:48:54.244Z,1004.96
2022-11-18T03:49:58.495Z,1004.98
2022-11-18T03:51:02.693Z,1004.98
2022-11-18T03:52:06.769Z,1004.97
2022-11-18T03:53:10.896Z,1004.97
2022-11-18T03:54:15.032Z,1004.96
2022-11-18T03:55:19.178Z,1004.98
2022-11-18T03:56:23.279Z,1004.99
2022-11-18T03:57:27.507Z,1005.01
2022-11-18T03:58:31.622Z,1005.01
2022-11-18T03:59:35.849Z,1005.03
2022-11-18T04:00:39.858Z,1004.99
2022-11-18T04:01:44.161Z,1004.97
2022-11-18T04:02:48.166Z,1004.98
2022-11-18T04:03:52.285Z,1004.99
2022-11-18T04:04:56.479Z,1005.03
2022-11-18T04:06:00.639Z,1005.00
2022-11-18T04:07:04.885Z,1005.00
2022-11-18T04:08:12.004Z,1005.01
2022-11-18T04:09:15.719Z,1005.00
2022-11-18T04:10:19.260Z,1005.03
2022-11-18T04:11:23.403Z,1005.02
2022-11-18T04:12:27.538Z,1005.05
2022-11-18T04:13:31.740Z,1005.09
2022-11-18T04:14:35.974Z,1005.12
2022-11-18T04:15:40.096Z,1005.13
2022-11-18T04:16:44.000Z,1005.18
2022-11-18T04:17:48.252Z,1005.18
2022-11-18T04:18:52.341Z,1005.19
2022-11-18T04:19:56.555Z,1005.22
2022-11-18T04:21:00.750Z,1005.24
2022-11-18T04:22:04.656Z,1005.22
2022-11-18T04:23:08.916Z,1005.25
2022-11-18T04:24:12.946Z,1005.25
2022-11-18T04:25:17.159Z,1005.30
2022-11-18T04:26:21.203Z,1005.32
2022-11-18T04:27:25.346Z,1005.32
2022-11-18T04:28:29.424Z,1005.33
2022-11-18T04:29:33.544Z,1005.36
2022-11-18T04:30:37.639Z,1005.38
2022-11-18T04:31:41.813Z,1005.35
2022-11-18T04:32:45.997Z,1005.32
2022-11-18T04:33:50.159Z,1005.31
2022-11-18T04:34:54.235Z,1005.33
2022-11-18T04:35:58.403Z,1005.33
2022-11-18T04:37:02.500Z,1005.32
2022-11-18T04:38:06.741Z,1005.32
2022-11-18T04:39:10.879Z,1005.32
2022-11-18T04:40:15.063Z,1005.33
2022-11-18T04:41:19.165Z,1005.35
2022-11-18T04:42:23.241Z,1005.38
2022-11-18T04:43:27.522Z,1005.37
2022-11-18T04:44:31.708Z,1005.40
2022-11-18T04:45:35.751Z,1005.40
2022-11-18T04:46:39.957Z,1005.45
2022-11-18T04:47:44.095Z,1005.43
2022-11-18T04:48:48.148Z,1005.45
2022-11-18T04:49:52.393Z,1005.46
2022-11-18T04:50:56.466Z,1005.48
2022-11-18T04:52:00.612Z,1005.50
2022-11-18T04:53:04.792Z,1005.49
2022-11-18T04:54:08.932Z,1005.54
2022-11-18T04:55:13.008Z,1005.53
2022-11-18T04:56:17.205Z,1005.55
2022-11-18T04:57:21.276Z,1005.57
2022-11-18T04:58:25.415Z,1005.53
2022-11-18T04:59:29.561Z,1005.56
2022-11-18T05:00:33.719Z,1005.52
2022-11-18T05:01:37.848Z,1005.56
2022-11-18T05:02:41.894Z,1005.59
2022-11-18T05:03:50.393Z,1005.59
2022-11-18T05:04:50.089Z,1005.58
2022-11-18T05:05:54.214Z,1005.61
2022-11-18T05:06:58.395Z,1005.63
2022-11-18T05:08:02.520Z,1005.64
2022-11-18T05:09:06.596Z,1005.67
2022-11-18T05:10:10.800Z,1005.68
2022-11-18T05:11:14.976Z,1005.69
2022-11-18T05:12:19.020Z,1005.72
2022-11-18T05:13:23.230Z,1005.70
2022-11-18T05:14:27.400Z,1005.71
2022-11-18T05:15:31.411Z,1005.72
2022-11-18T05:16:35.521Z,1005.72
2022-11-18T05:17:39.740Z,1005.74
2022-11-18T05:18:43.820Z,1005.74
2022-11-18T05:19:48.018Z,1005.71
2022-11-18T05:20:52.117Z,1005.74
2022-11-18T05:21:56.278Z,1005.81
2022-11-18T05:23:00.327Z,1005.80
2022-11-18T05:24:04.446Z,1005.80
2022-11-18T05:25:08.610Z,1005.84
2022-11-18T05:26:12.751Z,1005.88
2022-11-18T05:27:16.961Z,1005.88
2022-11-18T05:28:21.097Z,1005.87
2022-11-18T05:29:25.161Z,1005.91
2022-11-18T05:30:29.462Z,1005.94
2022-11-18T05:31:33.474Z,1005.91
2022-11-18T05:32:37.733Z,1005.97
2022-11-18T05:33:41.811Z,1005.96
2022-11-18T05:34:46.012Z,1005.96
2022-11-18T05:35:54.930Z,1005.98
2022-11-18T05:36:54.286Z,1005.98
2022-11-18T05:37:58.492Z,1006.00
2022-11-18T05:39:02.540Z,1006.04
2022-11-18T05:40:06.705Z,1006.07
2022-11-18T05:41:10.847Z,1006.06
2022-11-18T05:42:14.978Z,1006.05
2022-11-18T05:43:19.167Z,1006.04
2022-11-18T05:44:23.237Z,1006.07
2022-11-18T05:45:27.370Z,1006.08
2022-11-18T05:46:31.489Z,1006.06
2022-11-18T05:47:35.569Z,1006.09
2022-11-18T05:48:39.806Z,1006.11
2022-11-18T05:49:43.819Z,1006.14
2022-11-18T05:50:48.030Z,1006.14
2022-11-18T05:51:52.151Z,1006.17
2022-11-18T05:52:56.310Z,1006.21
2022-11-18T05:54:00.507Z,1006.23
2022-11-18T05:55:04.552Z,1006.20
2022-11-18T05:56:08.658Z,1006.23
2022-11-18T05:57:12.784Z,1006.23
2022-11-18T05:58:16.894Z,1006.22
2022-11-18T05:59:21.246Z,1006.25
2022-11-18T06:00:25.263Z,1006.25
2022-11-18T06:01:29.431Z,1006.26
2022-11-18T06:02:33.541Z,1006.25
2022-11-18T06:03:37.559Z,1006.28
2022-11-18T06:04:41.671Z,1006.27
2022-11-18T06:05:45.815Z,1006.29
2022-11-18T06:06:50.056Z,1006.29
2022-11-18T06:07:54.117Z,1006.31
2022-11-18T06:08:58.171Z,1006.35
2022-11-18T06:10:05.760Z,1006.33
2022-11-18T06:11:06.501Z,1006.34
2022-11-18T06:12:10.626Z,1006.35
2022-11-18T06:13:14.687Z,1006.32
2022-11-18T06:14:18.841Z,1006.33
2022-11-18T06:15:22.844Z,1006.36
2022-11-18T06:16:26.995Z,1006.36
2022-11-18T06:17:31.197Z,1006.41
2022-11-18T06:18:35.318Z,1006.40
2022-11-18T06:19:39.455Z,1006.39
2022-11-18T06:20:43.499Z,1006.41
2022-11-18T06:21:47.727Z,1006.39
2022-11-18T06:22:51.781Z,1006.39
2022-11-18T06:23:55.998Z,1006.40
2022-11-18T06:25:00.105Z,1006.41
2022-11-18T06:26:04.148Z,1006.44
2022-11-18T06:27:08.250Z,1006.43
2022-11-18T06:28:12.485Z,1006.47
2022-11-18T06:29:16.938Z,1006.47
2022-11-18T06:30:20.747Z,1006.49
2022-11-18T06:31:24.829Z,1006.48
2022-11-18T06:32:28.931Z,1006.49
2022-11-18T06:33:33.052Z,1006.53
2022-11-18T06:34:41.546Z,1006.53
2022-11-18T06:35:41.347Z,1006.57
2022-11-18T06:36:45.577Z,1006.57
2022-11-18T06:37:49.614Z,1006.59
2022-11-18T06:38:53.793Z,1006.62
2022-11-18T06:39:57.897Z,1006.64
2022-11-18T06:41:01.975Z,1006.65
2022-11-18T06:42:06.101Z,1006.66
2022-11-18T06:43:10.264Z,1006.67
2022-11-18T06:44:14.464Z,1006.67
2022-11-18T06:45:18.738Z,1006.68
2022-11-18T06:46:22.663Z,1006.71
2022-11-18T06:47:26.758Z,1006.71
2022-11-18T06:48:30.848Z,1006.70
2022-11-18T06:49:34.988Z,1006.74
2022-11-18T06:50:39.005Z,1006.76
2022-11-18T06:51:43.173Z,1006.80
2022-11-18T06:52:47.305Z,1006.79
2022-11-18T06:53:51.428Z,1006.83
2022-11-18T06:54:55.558Z,1006.84
2022-11-18T06:55:59.752Z,1006.87
2022-11-18T06:57:03.800Z,1006.84
2022-11-18T06:58:07.927Z,1006.86
2022-11-18T06:59:11.998Z,1006.84
2022-11-18T07:00:16.146Z,1006.86
2022-11-18T07:01:20.421Z,1006.91
2022-11-18T07:02:24.420Z,1006.89
2022-11-18T07:03:28.513Z,1006.97
2022-11-18T07:04:32.644Z,1006.98
2022-11-18T07:05:36.775Z,1006.99
2022-11-18T07:06:40.868Z,1006.96
2022-11-18T07:07:45.160Z,1006.96
2022-11-18T07:08:49.192Z,1006.97
2022-11-18T07:09:53.308Z,1006.96
2022-11-18T07:10:57.425Z,1007.02
2022-11-18T07:12:01.536Z,1007.01
2022-11-18T07:13:05.581Z,1007.03
2022-11-18T07:14:09.733Z,1007.01
2022-11-18T07:15:13.941Z,1007.02
2022-11-18T07:16:17.990Z,1006.98
2022-11-18T07:17:22.212Z,1006.99
2022-11-18T07:18:26.467Z,1006.98
2022-11-18T07:19:35.581Z,1007.00
2022-11-18T07:20:34.636Z,1006.99
2022-11-18T07:21:38.759Z,1006.98
2022-11-18T07:22:42.955Z,1006.98
2022-11-18T07:23:47.049Z,1007.04
2022-11-18T07:24:51.260Z,1007.00
2022-11-18T07:25:55.407Z,1007.01
2022-11-18T07:26:59.584Z,1007.03
2022-11-18T07:28:03.807Z,1007.03
2022-11-18T07:29:07.985Z,1007.05
2022-11-18T07:30:12.097Z,1007.07
2022-11-18T07:31:16.193Z,1007.13
2022-11-18T07:32:20.340Z,1007.10
2022-11-18T07:33:24.465Z,1007.14
2022-11-18T07:34:28.697Z,1007.16
2022-11-18T07:35:32.753Z,1007.15
2022-11-18T07:36:36.864Z,1007.16
2022-11-18T07:37:40.998Z,1007.18
2022-11-18T07:38:45.209Z,1007.20
2022-11-18T07:39:49.271Z,1007.18
2022-11-18T07:40:53.462Z,1007.21
2022-11-18T07:41:57.526Z,1007.24
2022-11-18T07:43:01.509Z,1007.24
2022-11-18T07:44:05.698Z,1007.25
2022-11-18T07:45:09.776Z,1007.29
2022-11-18T07:46:14.003Z,1007.29
2022-11-18T07:47:18.169Z,1007.31
2022-11-18T07:48:22.285Z,1007.30
2022-11-18T07:49:26.357Z,1007.32
2022-11-18T07:50:30.455Z,1007.33
2022-11-18T07:51:34.495Z,1007.33
2022-11-18T07:52:38.730Z,1007.34
2022-11-18T07:53:42.867Z,1007.35
2022-11-18T07:54:46.895Z,1007.38
2022-11-18T07:55:51.011Z,1007.43
2022-11-18T07:56:55.147Z,1007.43
2022-11-18T07:57:59.354Z,1007.48
2022-11-18T07:59:03.492Z,1007.47
2022-11-18T08:00:07.582Z,1007.50
2022-11-18T08:01:12.735Z,1007.51
2022-11-18T08:02:16.430Z,1007.53
2022-11-18T08:03:20.498Z,1007.53
2022-11-18T08:04:24.718Z,1007.52
2022-11-18T08:05:29.068Z,1007.50
2022-11-18T08:06:32.962Z,1007.49
2022-11-18T08:07:37.317Z,1007.46
2022-11-18T08:08:41.304Z,1007.47
2022-11-18T08:09:45.549Z,1007.44
2022-11-18T08:10:49.636Z,1007.47
2022-11-18T08:11:53.910Z,1007.47
2022-11-18T08:12:58.017Z,1007.46
2022-11-18T08:14:02.134Z,1007.51
2022-11-18T08:15:06.349Z,1007.52
2022-11-18T08:16:13.447Z,1007.52
2022-11-18T08:17:16.600Z,1007.52
2022-11-18T08:18:20.756Z,1007.54
2022-11-18T08:19:24.955Z,1007.52
2022-11-18T08:20:29.015Z,1007.57
2022-11-18T08:21:33.164Z,1007.58
2022-11-18T08:22:37.270Z,1007.55
2022-11-18T08:23:42.505Z,1007.59
2022-11-18T08:24:45.499Z,1007.55
2022-11-18T08:25:49.632Z,1007.54
2022-11-18T08:26:53.866Z,1007.60
2022-11-18T08:27:57.987Z,1007.55
2022-11-18T08:29:02.209Z,1007.54
2022-11-18T08:30:06.311Z,1007.55
2022-11-18T08:31:10.519Z,1007.55
2022-11-18T08:32:14.728Z,1007.56
2022-11-18T08:33:18.873Z,1007.56
2022-11-18T08:34:22.969Z,1007.55
2022-11-18T08:35:27.130Z,1007.52
2022-11-18T08:36:31.354Z,1007.59
2022-11-18T08:37:35.408Z,1007.61
2022-11-18T08:38:39.598Z,1007.65
2022-11-18T08:39:43.675Z,1007.66
2022-11-18T08:40:47.815Z,1007.66
2022-11-18T08:41:52.031Z,1007.69
2022-11-18T08:42:56.112Z,1007.71
2022-11-18T08:44:00.325Z,1007.68
2022-11-18T08:45:04.391Z,1007.70
2022-11-18T08:46:08.524Z,1007.71
2022-11-18T08:47:12.705Z,1007.76
2022-11-18T08:48:16.866Z,1007.76
2022-11-18T08:49:21.249Z,1007.73
2022-11-18T08:50:25.146Z,1007.74
2022-11-18T08:51:29.223Z,1007.73
2022-11-18T08:52:33.435Z,1007.71
2022-11-18T08:53:37.507Z,1007.67
2022-11-18T08:54:41.740Z,1007.68
2022-11-18T08:55:45.838Z,1007.72
2022-11-18T08:56:50.064Z,1007.69
2022-11-18T08:57:54.149Z,1007.66
2022-11-18T08:58:58.298Z,1007.68
2022-11-18T09:00:02.499Z,1007.67
2022-11-18T09:01:06.779Z,1007.67
2022-11-18T09:02:10.972Z,1007.67
2022-11-18T09:03:14.921Z,1007.67
2022-11-18T09:04:19.114Z,1007.69
2022-11-18T09:05:23.214Z,1007.65
2022-11-18T09:06:27.455Z,1007.74
2022-11-18T09:07:31.582Z,1007.59
2022-11-18T09:08:35.713Z,1007.63
2022-11-18T09:09:39.966Z,1007.67
2022-11-18T09:10:44.130Z,1007.68
2022-11-18T09:11:48.205Z,1007.61
2022-11-18T09:12:52.447Z,1007.68
2022-11-18T09:15:16.565Z,1007.66
2022-11-18T09:16:04.834Z,1007.65
2022-11-18T09:17:09.058Z,1007.63
2022-11-18T09:18:13.122Z,1007.62
2022-11-18T09:19:46.670Z,1007.61
2022-11-18T09:20:21.520Z,1007.62
2022-11-18T09:21:25.620Z,1007.61
2022-11-18T09:22:29.800Z,1007.66
2022-11-18T09:23:33.991Z,1007.77
2022-11-18T09:24:38.090Z,1007.64
2022-11-18T09:25:42.143Z,1007.63
2022-11-18T09:26:46.394Z,1007.72
2022-11-18T09:27:50.593Z,1007.75
2022-11-18T09:28:54.659Z,1007.70
2022-11-18T09:29:58.949Z,1007.75
2022-11-18T09:31:03.155Z,1007.73
2022-11-18T09:32:07.277Z,1007.78
2022-11-18T09:33:12.794Z,1007.83
2022-11-18T09:34:15.998Z,1007.82
2022-11-18T09:35:19.796Z,1007.86
2022-11-18T09:36:23.896Z,1007.84
2022-11-18T09:37:28.004Z,1007.90
2022-11-18T09:38:32.118Z,1007.88
2022-11-18T09:39:36.316Z,1007.88
2022-11-18T09:40:40.393Z,1007.88
2022-11-18T09:41:44.676Z,1007.92
2022-11-18T09:42:48.776Z,1007.95
2022-11-18T09:43:52.887Z,1007.94
2022-11-18T09:44:57.044Z,1007.92
2022-11-18T09:46:01.223Z,1007.94
2022-11-18T09:47:05.461Z,1007.98
2022-11-18T09:48:09.512Z,1007.96
2022-11-18T09:49:13.674Z,1007.91
2022-11-18T09:50:47.950Z,1007.94
2022-11-18T09:51:22.009Z,1008.00
2022-11-18T09:52:27.533Z,1007.93
2022-11-18T09:53:30.392Z,1007.94
2022-11-18T09:54:37.448Z,1007.97
2022-11-18T09:55:40.639Z,1007.90
2022-11-18T09:56:45.053Z,1007.98
2022-11-18T09:57:49.060Z,1007.89
2022-11-18T09:58:53.126Z,1007.96
2022-11-18T09:59:57.324Z,1007.94
2022-11-18T10:01:01.510Z,1007.93
2022-11-18T10:02:05.757Z,1007.98
2022-11-18T10:03:09.688Z,1007.99
2022-11-18T10:04:13.872Z,1007.97
2022-11-18T10:05:18.130Z,1008.07
2022-11-18T10:06:23.875Z,1007.94
2022-11-18T10:07:26.475Z,1007.97
2022-11-18T10:08:30.544Z,1007.97
2022-11-18T10:09:34.613Z,1007.97
2022-11-18T10:10:38.760Z,1007.97
2022-11-18T10:11:47.572Z,1007.92
2022-11-18T10:12:47.054Z,1007.92
2022-11-18T10:13:51.304Z,1007.98
2022-11-18T10:14:55.407Z,1007.95
2022-11-18T10:15:59.540Z,1007.93
2022-11-18T10:17:03.690Z,1007.93
2022-11-18T10:18:07.941Z,1007.96
2022-11-18T10:19:12.026Z,1007.94
2022-11-18T10:20:16.171Z,1007.96
2022-11-18T10:21:20.296Z,1007.98
2022-11-18T10:22:25.067Z,1007.95
2022-11-18T10:23:28.736Z,1007.89
2022-11-18T10:24:32.972Z,1007.95
2022-11-18T10:25:37.013Z,1007.90
2022-11-18T10:26:41.242Z,1007.90
2022-11-18T10:27:45.352Z,1007.91
2022-11-18T10:28:49.579Z,1007.92
2022-11-18T10:29:53.790Z,1007.93
2022-11-18T10:30:57.989Z,1007.96
2022-11-18T10:32:04.223Z,1007.94
2022-11-18T10:33:06.333Z,1007.96
2022-11-18T10:34:10.524Z,1007.92
2022-11-18T10:35:14.602Z,1007.93
2022-11-18T10:36:18.887Z,1007.92
2022-11-18T10:37:31.236Z,1007.92
2022-11-18T10:38:27.106Z,1007.93
2022-11-18T10:39:31.347Z,1007.99
2022-11-18T10:40:35.526Z,1007.98
2022-11-18T10:41:39.550Z,1007.89
2022-11-18T10:42:43.744Z,1007.99
2022-11-18T10:43:47.887Z,1007.96
2022-11-18T10:44:52.040Z,1007.99
2022-11-18T10:45:56.294Z,1007.98
2022-11-18T10:47:00.523Z,1008.00
2022-11-18T10:48:04.717Z,1008.03
2022-11-18T10:49:08.937Z,1008.00
2022-11-18T10:50:13.146Z,1008.01
2022-11-18T10:51:17.214Z,1008.04
2022-11-18T10:52:21.398Z,1008.03
2022-11-18T10:53:25.526Z,1008.07
2022-11-18T10:54:29.794Z,1008.01
2022-11-18T10:55:33.941Z,1008.03
2022-11-18T10:56:38.078Z,1008.04
2022-11-18T10:57:42.215Z,1008.05
2022-11-18T10:58:46.337Z,1008.06
2022-11-18T10:59:50.571Z,1008.09
2022-11-18T11:00:54.704Z,1008.09
2022-11-18T11:01:59.086Z,1008.05
2022-11-18T11:03:03.062Z,1008.04
2022-11-18T11:04:07.267Z,1008.00
2022-11-18T11:05:11.477Z,1008.00
2022-11-18T11:06:15.680Z,1008.06
2022-11-18T11:07:19.969Z,1008.06
2022-11-18T11:08:37.586Z,1008.01
2022-11-18T11:09:28.112Z,1008.03
2022-11-18T11:10:32.240Z,1008.06
2022-11-18T11:11:36.427Z,1008.09
2022-11-18T11:12:40.726Z,1008.12
2022-11-18T11:13:44.932Z,1008.12
2022-11-18T11:14:49.124Z,1008.14
2022-11-18T11:15:53.342Z,1008.17
2022-11-18T11:16:57.512Z,1008.14
2022-11-18T11:18:01.624Z,1008.14
2022-11-18T11:19:05.684Z,1008.13
2022-11-18T11:20:09.924Z,1008.11
2022-11-18T11:21:14.177Z,1008.14
2022-11-18T11:22:18.267Z,1008.17
2022-11-18T11:23:23.926Z,1008.16
2022-11-18T11:24:26.634Z,1008.16
2022-11-18T11:28:43.552Z,1008.23
2022-11-18T11:29:47.648Z,1008.22
2022-11-18T11:30:51.802Z,1008.25
2022-11-18T11:31:56.015Z,1008.25
2022-11-18T11:33:00.152Z,1008.23
2022-11-18T11:34:04.411Z,1008.25
2022-11-18T11:35:08.571Z,1008.26
2022-11-18T11:36:12.703Z,1008.28
2022-11-18T11:37:16.855Z,1008.24
2022-11-18T11:38:21.163Z,1008.26
2022-11-18T11:39:25.365Z,1008.26
2022-11-18T11:40:29.524Z,1008.27
2022-11-18T11:41:33.823Z,1008.26
2022-11-18T11:42:37.918Z,1008.22
2022-11-18T11:43:42.070Z,1008.22
2022-11-18T11:44:46.337Z,1008.25
2022-11-18T11:45:50.455Z,1008.26
2022-11-18T11:46:54.624Z,1008.26
2022-11-18T11:47:58.762Z,1008.25
2022-11-18T11:49:03.061Z,1008.26
2022-11-18T11:50:07.186Z,1008.23
2022-11-18T11:51:11.317Z,1008.23
2022-11-18T11:52:15.476Z,1008.27
2022-11-18T11:53:19.635Z,1008.26
2022-11-18T11:54:23.688Z,1008.26
2022-11-18T11:55:27.991Z,1008.29
2022-11-18T11:56:32.109Z,1008.30
2022-11-18T11:57:36.246Z,1008.26
2022-11-18T11:58:40.614Z,1008.29
2022-11-18T11:59:44.673Z,1008.28
2022-11-18T12:00:48.856Z,1008.31
2022-11-18T12:01:53.003Z,1008.30
2022-11-18T12:02:57.356Z,1008.33
2022-11-18T12:04:01.500Z,1008.35
2022-11-18T12:05:05.695Z,1008.36
2022-11-18T12:06:09.824Z,1008.36
2022-11-18T12:07:14.168Z,1008.36
2022-11-18T12:08:18.341Z,1008.38
2022-11-18T12:09:22.598Z,1008.38
2022-11-18T12:10:26.729Z,1008.36
2022-11-18T12:11:30.903Z,1008.39
2022-11-18T12:12:35.103Z,1008.42
2022-11-18T12:13:39.312Z,1008.40
2022-11-18T12:14:43.587Z,1008.41
2022-11-18T12:15:47.701Z,1008.42
2022-11-18T12:16:52.007Z,1008.35
2022-11-18T12:17:56.182Z,1008.40
2022-11-18T12:19:00.464Z,1008.38
2022-11-18T12:20:04.651Z,1008.39
2022-11-18T12:21:08.875Z,1008.38
2022-11-18T12:22:16.210Z,1008.41
2022-11-18T12:23:19.352Z,1008.41
2022-11-18T12:24:23.540Z,1008.43
2022-11-18T12:25:27.810Z,1008.43
2022-11-18T12:26:32.006Z,1008.46
2022-11-18T12:27:36.263Z,1008.44
2022-11-18T12:28:40.479Z,1008.48
2022-11-18T12:29:44.739Z,1008.48
2022-11-18T12:30:48.906Z,1008.49
2022-11-18T12:31:53.146Z,1008.48
2022-11-18T12:32:57.316Z,1008.47
2022-11-18T12:34:01.473Z,1008.45
2022-11-18T12:35:05.771Z,1008.45
2022-11-18T12:36:10.006Z,1008.37
2022-11-18T12:37:14.242Z,1008.40
2022-11-18T12:38:18.496Z,1008.41
2022-11-18T12:39:22.716Z,1008.41
2022-11-18T12:40:26.950Z,1008.40
2022-11-18T12:41:31.055Z,1008.39
2022-11-18T12:42:35.394Z,1008.39
2022-11-18T12:43:39.484Z,1008.41
2022-11-18T12:44:43.740Z,1008.41
2022-11-18T12:45:47.974Z,1008.44
2022-11-18T12:46:52.161Z,1008.41
2022-11-18T12:47:56.473Z,1008.42
2022-11-18T12:49:00.645Z,1008.45
2022-11-18T12:50:04.628Z,1008.44
2022-11-18T12:51:08.848Z,1008.39
2022-11-18T12:52:13.061Z,1008.38
2022-11-18T12:53:17.239Z,1008.37
2022-11-18T12:54:21.496Z,1008.36
2022-11-18T12:55:25.712Z,1008.32
2022-11-18T12:56:29.949Z,1008.28
2022-11-18T12:57:33.978Z,1008.24
2022-11-18T12:58:38.311Z,1008.20
2022-11-18T12:59:42.567Z,1008.17
2022-11-18T13:00:46.767Z,1008.18